sensor_id;sensor_type;location;lat;lon;timestamp;P1;durP1;ratioP1;P2;durP2;ratioP2
35326;SDS011;21436;52.348;20.928;2022-07-06T00:02:27;11.70;;;10.02;;
35326;SDS011;21436;52.348;20.928;2022-07-06T00:04:55;11.52;;;9.93;;
35326;SDS011;21436;52.348;20.928;2022-07-06T00:07:24;16.02;;;10.27;;
35326;SDS011;21436;52.348;20.928;2022-07-06T00:09:52;12.98;;;10.65;;
35326;SDS011;21436;52.348;20.928;2022-07-06T00:12:20;10.95;;;9.55;;
35326;SDS011;21436;52.348;20.928;2022-07-06T00:14:47;12.30;;;9.70;;
35326;SDS011;21436;52.348;20.928;2022-07-06T00:17:15;11.88;;;10.02;;
35326;SDS011;21436;52.348;20.928;2022-07-06T00:19:42;13.60;;;10.32;;
35326;SDS011;21436;52.348;20.928;2022-07-06T00:22:10;14.43;;;11.00;;
35326;SDS011;21436;52.348;20.928;2022-07-06T00:24:38;12.43;;;10.95;;
35326;SDS011;21436;52.348;20.928;2022-07-06T00:27:06;13.23;;;10.32;;
35326;SDS011;21436;52.348;20.928;2022-07-06T00:29:34;11.10;;;10.00;;
35326;SDS011;21436;52.348;20.928;2022-07-06T00:32:02;11.18;;;9.27;;
35326;SDS011;21436;52.348;20.928;2022-07-06T00:34:30;12.50;;;10.38;;
35326;SDS011;21436;52.348;20.928;2022-07-06T00:36:57;11.57;;;9.63;;
35326;SDS011;21436;52.348;20.928;2022-07-06T00:39:26;12.63;;;9.93;;
35326;SDS011;21436;52.348;20.928;2022-07-06T00:41:56;12.23;;;9.07;;
35326;SDS011;21436;52.348;20.928;2022-07-06T00:44:24;12.63;;;9.23;;
35326;SDS011;21436;52.348;20.928;2022-07-06T00:46:52;12.95;;;9.98;;
35326;SDS011;21436;52.348;20.928;2022-07-06T00:49:19;10.55;;;9.30;;
35326;SDS011;21436;52.348;20.928;2022-07-06T00:52:06;12.45;;;10.25;;
35326;SDS011;21436;52.348;20.928;2022-07-06T00:54:34;12.82;;;10.25;;
35326;SDS011;21436;52.348;20.928;2022-07-06T00:57:02;12.75;;;10.43;;
35326;SDS011;21436;52.348;20.928;2022-07-06T00:59:29;11.80;;;10.60;;
35326;SDS011;21436;52.348;20.928;2022-07-06T01:01:57;14.85;;;10.65;;
35326;SDS011;21436;52.348;20.928;2022-07-06T01:04:25;13.85;;;10.75;;
35326;SDS011;21436;52.348;20.928;2022-07-06T01:06:53;14.60;;;12.60;;
35326;SDS011;21436;52.348;20.928;2022-07-06T01:09:21;15.90;;;12.52;;
35326;SDS011;21436;52.348;20.928;2022-07-06T01:11:48;17.63;;;11.23;;
35326;SDS011;21436;52.348;20.928;2022-07-06T01:14:16;13.23;;;10.90;;
35326;SDS011;21436;52.348;20.928;2022-07-06T01:16:44;11.65;;;10.00;;
35326;SDS011;21436;52.348;20.928;2022-07-06T01:19:12;14.70;;;9.98;;
35326;SDS011;21436;52.348;20.928;2022-07-06T01:21:39;10.05;;;9.02;;
35326;SDS011;21436;52.348;20.928;2022-07-06T01:24:07;10.45;;;9.35;;
35326;SDS011;21436;52.348;20.928;2022-07-06T01:26:35;11.88;;;9.82;;
35326;SDS011;21436;52.348;20.928;2022-07-06T01:29:02;14.73;;;10.50;;
35326;SDS011;21436;52.348;20.928;2022-07-06T01:31:31;14.32;;;11.30;;
35326;SDS011;21436;52.348;20.928;2022-07-06T01:33:58;14.05;;;12.05;;
35326;SDS011;21436;52.348;20.928;2022-07-06T01:36:26;13.73;;;12.32;;
35326;SDS011;21436;52.348;20.928;2022-07-06T01:38:55;15.63;;;12.52;;
35326;SDS011;21436;52.348;20.928;2022-07-06T01:41:26;13.45;;;12.05;;
35326;SDS011;21436;52.348;20.928;2022-07-06T01:43:54;17.45;;;13.57;;
35326;SDS011;21436;52.348;20.928;2022-07-06T01:46:22;14.13;;;12.65;;
35326;SDS011;21436;52.348;20.928;2022-07-06T01:48:50;23.52;;;15.02;;
35326;SDS011;21436;52.348;20.928;2022-07-06T01:51:18;17.25;;;13.85;;
35326;SDS011;21436;52.348;20.928;2022-07-06T01:53:47;15.18;;;12.52;;
35326;SDS011;21436;52.348;20.928;2022-07-06T01:56:18;14.60;;;13.13;;
35326;SDS011;21436;52.348;20.928;2022-07-06T01:58:54;16.23;;;13.45;;
35326;SDS011;21436;52.348;20.928;2022-07-06T02:01:22;14.57;;;12.05;;
35326;SDS011;21436;52.348;20.928;2022-07-06T02:03:50;14.20;;;12.70;;
35326;SDS011;21436;52.348;20.928;2022-07-06T02:06:18;14.07;;;12.68;;
35326;SDS011;21436;52.348;20.928;2022-07-06T02:08:47;16.40;;;12.90;;
35326;SDS011;21436;52.348;20.928;2022-07-06T02:11:15;16.40;;;12.18;;
35326;SDS011;21436;52.348;20.928;2022-07-06T02:13:44;14.15;;;12.63;;
35326;SDS011;21436;52.348;20.928;2022-07-06T02:16:11;17.17;;;11.95;;
35326;SDS011;21436;52.348;20.928;2022-07-06T02:18:40;13.55;;;12.18;;
35326;SDS011;21436;52.348;20.928;2022-07-06T02:21:09;13.20;;;11.60;;
35326;SDS011;21436;52.348;20.928;2022-07-06T02:23:37;13.18;;;11.32;;
35326;SDS011;21436;52.348;20.928;2022-07-06T02:26:04;15.60;;;11.25;;
35326;SDS011;21436;52.348;20.928;2022-07-06T02:28:33;16.50;;;12.88;;
35326;SDS011;21436;52.348;20.928;2022-07-06T02:31:02;16.27;;;12.18;;
35326;SDS011;21436;52.348;20.928;2022-07-06T02:33:30;15.10;;;12.57;;
35326;SDS011;21436;52.348;20.928;2022-07-06T02:35:58;15.07;;;13.15;;
35326;SDS011;21436;52.348;20.928;2022-07-06T02:38:26;17.30;;;12.77;;
35326;SDS011;21436;52.348;20.928;2022-07-06T02:40:56;14.82;;;13.32;;
35326;SDS011;21436;52.348;20.928;2022-07-06T02:43:24;16.50;;;13.90;;
35326;SDS011;21436;52.348;20.928;2022-07-06T02:45:52;16.35;;;12.73;;
35326;SDS011;21436;52.348;20.928;2022-07-06T02:48:21;14.40;;;12.93;;
35326;SDS011;21436;52.348;20.928;2022-07-06T02:50:51;13.75;;;12.35;;
35326;SDS011;21436;52.348;20.928;2022-07-06T02:53:19;15.60;;;12.68;;
35326;SDS011;21436;52.348;20.928;2022-07-06T02:55:50;18.05;;;13.73;;
35326;SDS011;21436;52.348;20.928;2022-07-06T02:58:20;16.13;;;12.52;;
35326;SDS011;21436;52.348;20.928;2022-07-06T03:00:47;16.10;;;11.88;;
35326;SDS011;21436;52.348;20.928;2022-07-06T03:03:16;16.45;;;13.23;;
35326;SDS011;21436;52.348;20.928;2022-07-06T03:05:44;17.95;;;14.75;;
35326;SDS011;21436;52.348;20.928;2022-07-06T03:08:14;22.50;;;16.20;;
35326;SDS011;21436;52.348;20.928;2022-07-06T03:10:42;20.52;;;16.13;;
35326;SDS011;21436;52.348;20.928;2022-07-06T03:13:11;18.13;;;15.80;;
35326;SDS011;21436;52.348;20.928;2022-07-06T03:15:40;23.17;;;16.45;;
35326;SDS011;21436;52.348;20.928;2022-07-06T03:18:08;19.35;;;16.02;;
35326;SDS011;21436;52.348;20.928;2022-07-06T03:20:36;19.27;;;15.43;;
35326;SDS011;21436;52.348;20.928;2022-07-06T03:23:06;15.57;;;13.73;;
35326;SDS011;21436;52.348;20.928;2022-07-06T03:25:35;14.23;;;12.75;;
35326;SDS011;21436;52.348;20.928;2022-07-06T03:28:02;15.82;;;13.77;;
35326;SDS011;21436;52.348;20.928;2022-07-06T03:30:30;18.40;;;14.13;;
35326;SDS011;21436;52.348;20.928;2022-07-06T03:33:00;17.55;;;15.30;;
35326;SDS011;21436;52.348;20.928;2022-07-06T03:35:29;17.58;;;15.40;;
35326;SDS011;21436;52.348;20.928;2022-07-06T03:37:57;21.08;;;16.02;;
35326;SDS011;21436;52.348;20.928;2022-07-06T03:40:28;16.02;;;14.32;;
35326;SDS011;21436;52.348;20.928;2022-07-06T03:42:56;16.83;;;14.23;;
35326;SDS011;21436;52.348;20.928;2022-07-06T03:45:26;14.68;;;13.13;;
35326;SDS011;21436;52.348;20.928;2022-07-06T03:47:58;14.20;;;12.68;;
35326;SDS011;21436;52.348;20.928;2022-07-06T03:50:26;15.85;;;14.10;;
35326;SDS011;21436;52.348;20.928;2022-07-06T03:52:54;17.58;;;14.15;;
35326;SDS011;21436;52.348;20.928;2022-07-06T03:55:24;15.13;;;13.63;;
35326;SDS011;21436;52.348;20.928;2022-07-06T03:57:57;21.23;;;14.35;;
35326;SDS011;21436;52.348;20.928;2022-07-06T04:00:33;19.40;;;14.27;;
35326;SDS011;21436;52.348;20.928;2022-07-06T04:03:05;16.17;;;13.02;;
35326;SDS011;21436;52.348;20.928;2022-07-06T04:05:40;17.67;;;15.18;;
35326;SDS011;21436;52.348;20.928;2022-07-06T04:08:08;20.85;;;14.30;;
35326;SDS011;21436;52.348;20.928;2022-07-06T04:10:45;14.43;;;13.02;;
35326;SDS011;21436;52.348;20.928;2022-07-06T04:13:13;15.15;;;12.95;;
35326;SDS011;21436;52.348;20.928;2022-07-06T04:15:41;16.63;;;13.32;;
35326;SDS011;21436;52.348;20.928;2022-07-06T04:18:09;14.52;;;12.73;;
35326;SDS011;21436;52.348;20.928;2022-07-06T04:20:44;18.85;;;12.95;;
35326;SDS011;21436;52.348;20.928;2022-07-06T04:23:13;15.60;;;12.45;;
35326;SDS011;21436;52.348;20.928;2022-07-06T04:25:41;14.00;;;12.38;;
35326;SDS011;21436;52.348;20.928;2022-07-06T04:28:09;15.15;;;12.65;;
35326;SDS011;21436;52.348;20.928;2022-07-06T04:30:38;17.65;;;14.45;;
35326;SDS011;21436;52.348;20.928;2022-07-06T04:33:10;17.48;;;15.23;;
35326;SDS011;21436;52.348;20.928;2022-07-06T04:35:40;20.58;;;15.30;;
35326;SDS011;21436;52.348;20.928;2022-07-06T04:38:09;19.23;;;16.48;;
35326;SDS011;21436;52.348;20.928;2022-07-06T04:40:36;21.98;;;16.48;;
35326;SDS011;21436;52.348;20.928;2022-07-06T04:43:08;22.58;;;17.40;;
35326;SDS011;21436;52.348;20.928;2022-07-06T04:45:37;20.73;;;17.52;;
35326;SDS011;21436;52.348;20.928;2022-07-06T04:48:06;20.83;;;18.45;;
35326;SDS011;21436;52.348;20.928;2022-07-06T04:50:36;23.17;;;18.58;;
35326;SDS011;21436;52.348;20.928;2022-07-06T04:53:11;23.75;;;19.73;;
35326;SDS011;21436;52.348;20.928;2022-07-06T04:55:41;26.08;;;20.25;;
35326;SDS011;21436;52.348;20.928;2022-07-06T04:58:09;24.48;;;19.65;;
35326;SDS011;21436;52.348;20.928;2022-07-06T05:00:38;22.38;;;18.73;;
35326;SDS011;21436;52.348;20.928;2022-07-06T05:03:06;19.85;;;17.08;;
35326;SDS011;21436;52.348;20.928;2022-07-06T05:05:34;21.48;;;17.48;;
35326;SDS011;21436;52.348;20.928;2022-07-06T05:08:02;18.98;;;16.60;;
35326;SDS011;21436;52.348;20.928;2022-07-06T05:10:30;13.88;;;12.45;;
35326;SDS011;21436;52.348;20.928;2022-07-06T05:12:59;16.95;;;12.98;;
35326;SDS011;21436;52.348;20.928;2022-07-06T05:15:27;19.52;;;12.15;;
35326;SDS011;21436;52.348;20.928;2022-07-06T05:17:55;17.67;;;11.20;;
35326;SDS011;21436;52.348;20.928;2022-07-06T05:20:24;13.75;;;9.20;;
35326;SDS011;21436;52.348;20.928;2022-07-06T05:22:51;9.95;;;8.65;;
35326;SDS011;21436;52.348;20.928;2022-07-06T05:25:24;11.65;;;7.80;;
35326;SDS011;21436;52.348;20.928;2022-07-06T05:27:52;10.25;;;8.25;;
35326;SDS011;21436;52.348;20.928;2022-07-06T05:30:20;9.35;;;7.18;;
35326;SDS011;21436;52.348;20.928;2022-07-06T05:32:50;7.25;;;6.10;;
35326;SDS011;21436;52.348;20.928;2022-07-06T05:35:19;11.30;;;6.40;;
35326;SDS011;21436;52.348;20.928;2022-07-06T05:38:07;14.25;;;6.65;;
35326;SDS011;21436;52.348;20.928;2022-07-06T05:40:36;6.88;;;6.25;;
35326;SDS011;21436;52.348;20.928;2022-07-06T05:43:04;7.32;;;5.90;;
35326;SDS011;21436;52.348;20.928;2022-07-06T05:45:33;15.45;;;6.40;;
35326;SDS011;21436;52.348;20.928;2022-07-06T05:48:02;10.07;;;6.97;;
35326;SDS011;21436;52.348;20.928;2022-07-06T05:50:51;12.68;;;6.13;;
35326;SDS011;21436;52.348;20.928;2022-07-06T05:53:21;10.15;;;5.25;;
35326;SDS011;21436;52.348;20.928;2022-07-06T05:55:52;10.18;;;5.38;;
35326;SDS011;21436;52.348;20.928;2022-07-06T05:58:20;9.23;;;5.88;;
35326;SDS011;21436;52.348;20.928;2022-07-06T06:00:49;11.07;;;6.18;;
35326;SDS011;21436;52.348;20.928;2022-07-06T06:03:20;5.95;;;5.15;;
35326;SDS011;21436;52.348;20.928;2022-07-06T06:05:49;6.97;;;5.10;;
35326;SDS011;21436;52.348;20.928;2022-07-06T06:08:19;8.20;;;5.18;;
35326;SDS011;21436;52.348;20.928;2022-07-06T06:10:50;8.75;;;4.97;;
35326;SDS011;21436;52.348;20.928;2022-07-06T06:13:20;6.15;;;4.60;;
35326;SDS011;21436;52.348;20.928;2022-07-06T06:15:48;12.55;;;4.72;;
35326;SDS011;21436;52.348;20.928;2022-07-06T06:18:16;7.00;;;4.53;;
35326;SDS011;21436;52.348;20.928;2022-07-06T06:20:47;8.43;;;4.38;;
35326;SDS011;21436;52.348;20.928;2022-07-06T06:23:17;6.03;;;4.50;;
35326;SDS011;21436;52.348;20.928;2022-07-06T06:25:47;16.27;;;5.25;;
35326;SDS011;21436;52.348;20.928;2022-07-06T06:28:15;14.50;;;6.22;;
35326;SDS011;21436;52.348;20.928;2022-07-06T06:30:43;10.10;;;6.10;;
35326;SDS011;21436;52.348;20.928;2022-07-06T06:33:11;11.10;;;6.22;;
35326;SDS011;21436;52.348;20.928;2022-07-06T06:35:44;8.82;;;5.40;;
35326;SDS011;21436;52.348;20.928;2022-07-06T06:38:15;5.35;;;4.30;;
35326;SDS011;21436;52.348;20.928;2022-07-06T06:40:44;8.40;;;4.80;;
35326;SDS011;21436;52.348;20.928;2022-07-06T06:43:12;10.32;;;5.00;;
35326;SDS011;21436;52.348;20.928;2022-07-06T06:46:18;7.05;;;5.65;;
35326;SDS011;21436;52.348;20.928;2022-07-06T06:48:46;7.78;;;5.20;;
35326;SDS011;21436;52.348;20.928;2022-07-06T06:51:14;9.88;;;6.13;;
35326;SDS011;21436;52.348;20.928;2022-07-06T06:53:42;7.70;;;5.10;;
35326;SDS011;21436;52.348;20.928;2022-07-06T06:56:09;9.82;;;4.50;;
35326;SDS011;21436;52.348;20.928;2022-07-06T06:58:37;8.93;;;4.45;;
35326;SDS011;21436;52.348;20.928;2022-07-06T07:01:25;4.82;;;4.32;;
35326;SDS011;21436;52.348;20.928;2022-07-06T07:03:53;5.03;;;4.40;;
35326;SDS011;21436;52.348;20.928;2022-07-06T07:06:22;5.70;;;4.95;;
35326;SDS011;21436;52.348;20.928;2022-07-06T07:08:50;7.05;;;6.40;;
35326;SDS011;21436;52.348;20.928;2022-07-06T07:11:18;10.75;;;7.10;;
35326;SDS011;21436;52.348;20.928;2022-07-06T07:13:45;16.60;;;7.38;;
35326;SDS011;21436;52.348;20.928;2022-07-06T07:16:13;10.85;;;6.30;;
35326;SDS011;21436;52.348;20.928;2022-07-06T07:18:41;16.77;;;5.32;;
35326;SDS011;21436;52.348;20.928;2022-07-06T07:21:09;6.82;;;4.18;;
35326;SDS011;21436;52.348;20.928;2022-07-06T07:23:37;7.30;;;4.68;;
35326;SDS011;21436;52.348;20.928;2022-07-06T07:26:04;7.20;;;6.60;;
35326;SDS011;21436;52.348;20.928;2022-07-06T07:28:33;7.22;;;6.47;;
35326;SDS011;21436;52.348;20.928;2022-07-06T07:31:01;10.55;;;6.85;;
35326;SDS011;21436;52.348;20.928;2022-07-06T07:33:29;10.68;;;9.57;;
35326;SDS011;21436;52.348;20.928;2022-07-06T07:35:56;13.18;;;12.07;;
35326;SDS011;21436;52.348;20.928;2022-07-06T07:38:24;23.45;;;21.98;;
35326;SDS011;21436;52.348;20.928;2022-07-06T07:40:53;19.35;;;17.85;;
35326;SDS011;21436;52.348;20.928;2022-07-06T07:43:21;4.38;;;2.88;;
35326;SDS011;21436;52.348;20.928;2022-07-06T07:45:49;6.85;;;2.13;;
35326;SDS011;21436;52.348;20.928;2022-07-06T07:48:17;2.95;;;1.75;;
35326;SDS011;21436;52.348;20.928;2022-07-06T07:50:44;6.30;;;1.80;;
35326;SDS011;21436;52.348;20.928;2022-07-06T07:53:13;4.10;;;1.77;;
35326;SDS011;21436;52.348;20.928;2022-07-06T07:55:42;5.20;;;1.60;;
35326;SDS011;21436;52.348;20.928;2022-07-06T07:58:10;4.60;;;2.25;;
35326;SDS011;21436;52.348;20.928;2022-07-06T08:00:38;2.53;;;1.30;;
35326;SDS011;21436;52.348;20.928;2022-07-06T08:03:05;7.03;;;1.42;;
35326;SDS011;21436;52.348;20.928;2022-07-06T08:05:33;4.43;;;1.58;;
35326;SDS011;21436;52.348;20.928;2022-07-06T08:08:01;2.15;;;1.60;;
35326;SDS011;21436;52.348;20.928;2022-07-06T08:10:28;2.67;;;1.52;;
35326;SDS011;21436;52.348;20.928;2022-07-06T08:13:12;4.03;;;1.48;;
35326;SDS011;21436;52.348;20.928;2022-07-06T08:15:42;3.35;;;1.60;;
35326;SDS011;21436;52.348;20.928;2022-07-06T08:18:09;8.90;;;2.17;;
35326;SDS011;21436;52.348;20.928;2022-07-06T08:20:37;2.42;;;1.25;;
35326;SDS011;21436;52.348;20.928;2022-07-06T08:23:25;2.92;;;1.10;;
35326;SDS011;21436;52.348;20.928;2022-07-06T08:25:54;5.38;;;1.50;;
35326;SDS011;21436;52.348;20.928;2022-07-06T08:28:21;2.28;;;1.10;;
35326;SDS011;21436;52.348;20.928;2022-07-06T08:30:49;4.07;;;1.20;;
35326;SDS011;21436;52.348;20.928;2022-07-06T08:33:17;3.03;;;1.05;;
35326;SDS011;21436;52.348;20.928;2022-07-06T08:35:45;5.78;;;2.88;;
35326;SDS011;21436;52.348;20.928;2022-07-06T08:38:12;3.78;;;0.95;;
35326;SDS011;21436;52.348;20.928;2022-07-06T08:40:41;3.38;;;1.02;;
35326;SDS011;21436;52.348;20.928;2022-07-06T08:43:12;2.28;;;0.80;;
35326;SDS011;21436;52.348;20.928;2022-07-06T08:45:42;2.33;;;0.95;;
35326;SDS011;21436;52.348;20.928;2022-07-06T08:48:12;4.22;;;1.13;;
35326;SDS011;21436;52.348;20.928;2022-07-06T08:50:40;3.83;;;1.00;;
35326;SDS011;21436;52.348;20.928;2022-07-06T08:53:08;2.58;;;1.13;;
35326;SDS011;21436;52.348;20.928;2022-07-06T08:55:36;0.85;;;0.80;;
35326;SDS011;21436;52.348;20.928;2022-07-06T08:58:04;4.32;;;1.17;;
35326;SDS011;21436;52.348;20.928;2022-07-06T09:00:34;2.53;;;0.85;;
35326;SDS011;21436;52.348;20.928;2022-07-06T09:03:02;2.83;;;0.90;;
35326;SDS011;21436;52.348;20.928;2022-07-06T09:05:31;4.85;;;1.75;;
35326;SDS011;21436;52.348;20.928;2022-07-06T09:08:02;3.45;;;0.82;;
35326;SDS011;21436;52.348;20.928;2022-07-06T09:10:30;3.58;;;1.02;;
35326;SDS011;21436;52.348;20.928;2022-07-06T09:13:02;2.85;;;0.90;;
35326;SDS011;21436;52.348;20.928;2022-07-06T09:15:33;3.00;;;0.80;;
35326;SDS011;21436;52.348;20.928;2022-07-06T09:18:03;7.30;;;1.42;;
35326;SDS011;21436;52.348;20.928;2022-07-06T09:20:32;4.00;;;1.00;;
35326;SDS011;21436;52.348;20.928;2022-07-06T09:23:03;0.90;;;0.68;;
35326;SDS011;21436;52.348;20.928;2022-07-06T09:25:40;1.40;;;0.60;;
35326;SDS011;21436;52.348;20.928;2022-07-06T09:28:08;4.07;;;1.05;;
35326;SDS011;21436;52.348;20.928;2022-07-06T09:30:36;1.58;;;0.82;;
35326;SDS011;21436;52.348;20.928;2022-07-06T09:33:08;4.25;;;0.90;;
35326;SDS011;21436;52.348;20.928;2022-07-06T09:35:37;3.15;;;0.80;;
35326;SDS011;21436;52.348;20.928;2022-07-06T09:40:39;2.25;;;1.20;;
35326;SDS011;21436;52.348;20.928;2022-07-06T09:43:17;3.33;;;0.93;;
35326;SDS011;21436;52.348;20.928;2022-07-06T09:45:51;2.95;;;1.17;;
35326;SDS011;21436;52.348;20.928;2022-07-06T09:48:23;2.22;;;0.63;;
35326;SDS011;21436;52.348;20.928;2022-07-06T09:50:54;4.68;;;0.75;;
35326;SDS011;21436;52.348;20.928;2022-07-06T09:53:24;2.58;;;0.90;;
35326;SDS011;21436;52.348;20.928;2022-07-06T09:55:53;1.38;;;0.70;;
35326;SDS011;21436;52.348;20.928;2022-07-06T09:58:22;2.30;;;1.08;;
35326;SDS011;21436;52.348;20.928;2022-07-06T10:01:10;2.97;;;0.70;;
35326;SDS011;21436;52.348;20.928;2022-07-06T10:03:38;2.47;;;0.75;;
35326;SDS011;21436;52.348;20.928;2022-07-06T10:06:06;1.45;;;0.88;;
35326;SDS011;21436;52.348;20.928;2022-07-06T10:08:35;1.40;;;0.73;;
35326;SDS011;21436;52.348;20.928;2022-07-06T10:11:04;1.65;;;0.90;;
35326;SDS011;21436;52.348;20.928;2022-07-06T10:13:34;2.95;;;0.90;;
35326;SDS011;21436;52.348;20.928;2022-07-06T10:16:03;13.00;;;1.35;;
35326;SDS011;21436;52.348;20.928;2022-07-06T10:18:31;12.52;;;2.20;;
35326;SDS011;21436;52.348;20.928;2022-07-06T10:20:59;1.58;;;0.73;;
35326;SDS011;21436;52.348;20.928;2022-07-06T10:23:27;4.45;;;1.00;;
35326;SDS011;21436;52.348;20.928;2022-07-06T10:25:56;3.38;;;0.85;;
35326;SDS011;21436;52.348;20.928;2022-07-06T10:28:24;2.88;;;0.77;;
35326;SDS011;21436;52.348;20.928;2022-07-06T10:30:53;4.82;;;0.88;;
35326;SDS011;21436;52.348;20.928;2022-07-06T10:33:21;2.15;;;0.93;;
35326;SDS011;21436;52.348;20.928;2022-07-06T10:35:54;3.35;;;0.88;;
35326;SDS011;21436;52.348;20.928;2022-07-06T10:38:30;4.35;;;0.80;;
35326;SDS011;21436;52.348;20.928;2022-07-06T10:41:03;1.98;;;1.10;;
35326;SDS011;21436;52.348;20.928;2022-07-06T10:43:37;2.67;;;1.00;;
35326;SDS011;21436;52.348;20.928;2022-07-06T10:46:16;4.78;;;0.90;;
35326;SDS011;21436;52.348;20.928;2022-07-06T10:48:47;1.85;;;0.65;;
35326;SDS011;21436;52.348;20.928;2022-07-06T10:51:27;6.30;;;1.00;;
35326;SDS011;21436;52.348;20.928;2022-07-06T10:54:00;1.35;;;0.90;;
35326;SDS011;21436;52.348;20.928;2022-07-06T10:56:39;3.60;;;0.93;;
35326;SDS011;21436;52.348;20.928;2022-07-06T10:59:13;2.13;;;0.90;;
35326;SDS011;21436;52.348;20.928;2022-07-06T11:04:48;8.15;;;1.52;;
35326;SDS011;21436;52.348;20.928;2022-07-06T11:07:17;4.43;;;0.88;;
35326;SDS011;21436;52.348;20.928;2022-07-06T11:09:58;3.08;;;1.13;;
35326;SDS011;21436;52.348;20.928;2022-07-06T11:12:27;4.05;;;1.17;;
35326;SDS011;21436;52.348;20.928;2022-07-06T11:14:55;2.42;;;0.88;;
35326;SDS011;21436;52.348;20.928;2022-07-06T11:17:22;2.78;;;0.90;;
35326;SDS011;21436;52.348;20.928;2022-07-06T11:19:52;3.90;;;0.90;;
35326;SDS011;21436;52.348;20.928;2022-07-06T11:24:54;1.33;;;0.75;;
35326;SDS011;21436;52.348;20.928;2022-07-06T11:27:23;3.10;;;0.88;;
35326;SDS011;21436;52.348;20.928;2022-07-06T11:29:51;4.28;;;0.70;;
35326;SDS011;21436;52.348;20.928;2022-07-06T11:32:22;2.63;;;0.80;;
35326;SDS011;21436;52.348;20.928;2022-07-06T11:34:51;3.22;;;1.58;;
35326;SDS011;21436;52.348;20.928;2022-07-06T11:37:19;2.58;;;0.63;;
35326;SDS011;21436;52.348;20.928;2022-07-06T11:39:47;1.75;;;0.73;;
35326;SDS011;21436;52.348;20.928;2022-07-06T11:42:16;1.98;;;0.77;;
35326;SDS011;21436;52.348;20.928;2022-07-06T11:44:45;3.35;;;0.90;;
35326;SDS011;21436;52.348;20.928;2022-07-06T11:47:13;5.88;;;1.00;;
35326;SDS011;21436;52.348;20.928;2022-07-06T11:49:49;4.28;;;1.40;;
35326;SDS011;21436;52.348;20.928;2022-07-06T11:52:17;3.92;;;1.10;;
35326;SDS011;21436;52.348;20.928;2022-07-06T11:54:45;2.45;;;0.70;;
35326;SDS011;21436;52.348;20.928;2022-07-06T11:57:13;6.45;;;0.85;;
35326;SDS011;21436;52.348;20.928;2022-07-06T11:59:41;5.03;;;0.82;;
35326;SDS011;21436;52.348;20.928;2022-07-06T12:02:10;1.33;;;0.80;;
35326;SDS011;21436;52.348;20.928;2022-07-06T12:04:43;1.25;;;0.85;;
35326;SDS011;21436;52.348;20.928;2022-07-06T12:07:12;2.20;;;1.03;;
35326;SDS011;21436;52.348;20.928;2022-07-06T12:09:43;2.00;;;0.77;;
35326;SDS011;21436;52.348;20.928;2022-07-06T12:12:12;3.22;;;0.77;;
35326;SDS011;21436;52.348;20.928;2022-07-06T12:14:40;3.60;;;0.70;;
35326;SDS011;21436;52.348;20.928;2022-07-06T12:17:09;2.25;;;1.00;;
35326;SDS011;21436;52.348;20.928;2022-07-06T12:19:38;3.88;;;0.90;;
35326;SDS011;21436;52.348;20.928;2022-07-06T12:22:07;2.35;;;0.95;;
35326;SDS011;21436;52.348;20.928;2022-07-06T12:24:36;1.55;;;0.93;;
35326;SDS011;21436;52.348;20.928;2022-07-06T12:27:12;3.65;;;1.02;;
35326;SDS011;21436;52.348;20.928;2022-07-06T12:29:41;4.43;;;1.13;;
35326;SDS011;21436;52.348;20.928;2022-07-06T12:32:21;11.23;;;2.50;;
35326;SDS011;21436;52.348;20.928;2022-07-06T12:37:38;4.55;;;0.90;;
35326;SDS011;21436;52.348;20.928;2022-07-06T12:40:25;1.05;;;0.88;;
35326;SDS011;21436;52.348;20.928;2022-07-06T12:42:54;2.08;;;0.80;;
35326;SDS011;21436;52.348;20.928;2022-07-06T12:45:28;3.95;;;1.00;;
35326;SDS011;21436;52.348;20.928;2022-07-06T12:47:57;2.75;;;0.80;;
35326;SDS011;21436;52.348;20.928;2022-07-06T12:50:34;5.30;;;0.77;;
35326;SDS011;21436;52.348;20.928;2022-07-06T12:53:03;1.27;;;0.70;;
35326;SDS011;21436;52.348;20.928;2022-07-06T12:55:32;1.73;;;0.80;;
35326;SDS011;21436;52.348;20.928;2022-07-06T12:57:59;4.20;;;0.95;;
35326;SDS011;21436;52.348;20.928;2022-07-06T13:00:27;1.80;;;0.80;;
35326;SDS011;21436;52.348;20.928;2022-07-06T13:02:55;3.95;;;1.15;;
35326;SDS011;21436;52.348;20.928;2022-07-06T13:05:39;1.75;;;0.82;;
35326;SDS011;21436;52.348;20.928;2022-07-06T13:08:06;4.55;;;1.00;;
35326;SDS011;21436;52.348;20.928;2022-07-06T13:10:36;2.80;;;0.93;;
35326;SDS011;21436;52.348;20.928;2022-07-06T13:13:07;2.53;;;0.80;;
35326;SDS011;21436;52.348;20.928;2022-07-06T13:15:36;5.05;;;0.95;;
35326;SDS011;21436;52.348;20.928;2022-07-06T13:18:03;4.53;;;1.05;;
35326;SDS011;21436;52.348;20.928;2022-07-06T13:20:38;1.42;;;0.80;;
35326;SDS011;21436;52.348;20.928;2022-07-06T13:23:06;2.97;;;1.17;;
35326;SDS011;21436;52.348;20.928;2022-07-06T13:25:34;6.43;;;1.15;;
35326;SDS011;21436;52.348;20.928;2022-07-06T13:28:02;1.55;;;1.00;;
35326;SDS011;21436;52.348;20.928;2022-07-06T13:30:30;1.77;;;0.98;;
35326;SDS011;21436;52.348;20.928;2022-07-06T13:32:58;3.72;;;0.95;;
35326;SDS011;21436;52.348;20.928;2022-07-06T13:35:26;3.90;;;0.90;;
35326;SDS011;21436;52.348;20.928;2022-07-06T13:37:53;3.97;;;1.20;;
35326;SDS011;21436;52.348;20.928;2022-07-06T13:40:21;3.45;;;0.88;;
35326;SDS011;21436;52.348;20.928;2022-07-06T13:42:49;4.10;;;1.02;;
35326;SDS011;21436;52.348;20.928;2022-07-06T13:45:16;11.63;;;1.15;;
35326;SDS011;21436;52.348;20.928;2022-07-06T13:47:44;1.10;;;0.85;;
35326;SDS011;21436;52.348;20.928;2022-07-06T13:50:12;2.00;;;0.93;;
35326;SDS011;21436;52.348;20.928;2022-07-06T13:52:39;2.17;;;0.82;;
35326;SDS011;21436;52.348;20.928;2022-07-06T13:55:07;1.70;;;1.05;;
35326;SDS011;21436;52.348;20.928;2022-07-06T13:57:37;1.42;;;0.80;;
35326;SDS011;21436;52.348;20.928;2022-07-06T14:00:07;2.58;;;1.10;;
35326;SDS011;21436;52.348;20.928;2022-07-06T14:02:35;4.30;;;1.40;;
35326;SDS011;21436;52.348;20.928;2022-07-06T14:05:03;4.63;;;1.50;;
35326;SDS011;21436;52.348;20.928;2022-07-06T14:07:32;5.10;;;0.93;;
35326;SDS011;21436;52.348;20.928;2022-07-06T14:10:00;5.65;;;1.42;;
35326;SDS011;21436;52.348;20.928;2022-07-06T14:12:28;2.88;;;0.98;;
35326;SDS011;21436;52.348;20.928;2022-07-06T14:14:55;3.40;;;1.10;;
35326;SDS011;21436;52.348;20.928;2022-07-06T14:17:23;4.38;;;1.67;;
35326;SDS011;21436;52.348;20.928;2022-07-06T14:19:51;3.40;;;0.90;;
35326;SDS011;21436;52.348;20.928;2022-07-06T14:22:18;1.92;;;1.30;;
35326;SDS011;21436;52.348;20.928;2022-07-06T14:24:46;5.80;;;1.10;;
35326;SDS011;21436;52.348;20.928;2022-07-06T14:27:14;4.72;;;1.20;;
35326;SDS011;21436;52.348;20.928;2022-07-06T14:29:41;2.55;;;1.08;;
35326;SDS011;21436;52.348;20.928;2022-07-06T14:32:09;26.15;;;2.17;;
35326;SDS011;21436;52.348;20.928;2022-07-06T14:34:37;5.25;;;1.15;;
35326;SDS011;21436;52.348;20.928;2022-07-06T14:37:04;2.65;;;0.90;;
35326;SDS011;21436;52.348;20.928;2022-07-06T14:39:32;3.40;;;1.20;;
35326;SDS011;21436;52.348;20.928;2022-07-06T14:42:00;2.97;;;1.40;;
35326;SDS011;21436;52.348;20.928;2022-07-06T14:44:28;4.97;;;1.30;;
35326;SDS011;21436;52.348;20.928;2022-07-06T14:46:55;0.90;;;0.90;;
35326;SDS011;21436;52.348;20.928;2022-07-06T14:49:23;3.55;;;1.05;;